Flight Track Log - Related Links

Times and Time Zones

All times are in EDT time to prevent confusion due to time zone crossing. See the AWI3894 flight status page for this flight to view local times or setup timezone preferences in your user account.

Time Position Orientation Groundspeed Altitude Reporting Facility
EDT Latitude Longitude Course Direction KTS MPH feet Rate Location/Type
Sun 05:38:09 AM 36.8806 -76.2178 North 162 186 600  Level Washington Center
Sun 05:38:34 AM 36.8700 -76.2358 228° Southwest 178 205 1,300 1,884 Climbing Washington Center
Sun 05:39:35 AM 36.9094 -76.2386 357° North 201 231 3,300 2,132 Climbing Washington Center
Sun 05:40:00 AM 37.0681 -75.8864 56° Northeast  Level FlightAware Approximate
Sun 05:40:35 AM 36.9411 -76.1869 53° Northeast 215 247 5,600  Level Washington Center
Sun 05:41:00 AM 37.1268 -75.7786 56° Northeast  Level FlightAware Approximate
Sun 05:41:37 AM 36.9811 -76.1197 53° Northeast 215 247 8,200  Level Washington Center
Sun 05:42:00 AM 37.1847 -75.6730 50° Northeast  Level FlightAware Approximate
Sun 05:42:37 AM 37.0189 -76.0575 53° Northeast 220 253 10,000  Level Washington Center
Sun 05:43:00 AM 37.2616 -75.6000 North  Level FlightAware Approximate
Sun 05:43:35 AM 37.0794 -76.0267 22° Northeast 214 246 12,000  Level Washington Center
Sun 05:44:35 AM 37.1422 -75.9906 25° Northeast 225 259 14,100 2,033 Climbing Washington Center
Sun 05:45:36 AM 37.2089 -75.9544 23° Northeast 243 280 16,100 1,869 Climbing Washington Center
Sun 05:46:37 AM 37.2781 -75.9156 24° Northeast 254 292 17,900 1,388 Climbing Washington Center
Sun 05:47:37 AM 37.3489 -75.8739 25° Northeast 267 307 18,900 559 Climbing Washington Center
Sun 05:48:35 AM 37.4347 -75.8272 23° Northeast 297 342 19,000 51 Climbing Washington Center
Sun 05:49:35 AM 37.5222 -75.7750 25° Northeast 327 376 19,000  Level Washington Center
Sun 05:50:36 AM 37.6119 -75.7228 25° Northeast 340 391 19,000  Level Washington Center
Sun 05:51:37 AM 37.7039 -75.6731 23° Northeast 345 397 19,000  Level Washington Center
Sun 05:52:37 AM 37.7936 -75.6206 25° Northeast 345 397 19,000  Level Washington Center
Sun 05:53:34 AM 37.8853 -75.5708 23° Northeast 350 403 19,000  Level Washington Center
Sun 05:54:35 AM 37.9750 -75.5181 25° Northeast 350 403 19,000  Level Washington Center
Sun 05:55:36 AM 38.0647 -75.4653 25° Northeast 350 403 19,000  Level Washington Center
Sun 05:56:37 AM 38.1522 -75.4042 29° Northeast 350 403 19,000 -149 Level Washington Center
Sun 05:57:37 AM 38.2439 -75.3592 21° North 355 409 18,700 -718 Descending Washington Center
Sun 05:58:34 AM 38.3439 -75.3322 12° North 355 409 17,600 -1,059 Descending Washington Center
Sun 05:59:36 AM 38.4417 -75.2947 17° North 355 409 16,600 -992 Descending Washington Center
Sun 06:00:35 AM 38.5397 -75.2706 11° North 355 409 15,600 -857 Descending Washington Center
Sun 06:01:35 AM 38.6375 -75.2461 11° North 355 409 14,900 -353 Descending Washington Center
Sun 06:02:34 AM 38.7314 -75.2139 15° North 355 409 14,900 -298 Level Washington Center
Sun 06:03:36 AM 38.8250 -75.1867 13° North 350 403 14,300 -800 Descending Washington Center
Sun 06:04:34 AM 38.9125 -75.1622 12° North 340 391 13,300 -1,008 Descending Washington Center
Sun 06:05:35 AM 38.9978 -75.1322 15° North 325 374 12,300 -1,000 Descending Washington Center
Sun 06:06:34 AM 39.0792 -75.1103 12° North 312 359 11,300 -935 Descending Washington Center
Sun 06:08:41 AM 39.2500 -75.0500 15° North 285 328 9,400 -706 Descending Philadelphia TRACON
Sun 06:09:41 AM 39.3167 -75.0333 11° North 279 321 9,100 -130 Descending Philadelphia TRACON
Sun 06:10:59 AM 39.4167 -75.0000 14° North 281 323 9,100 -286 Level Philadelphia TRACON
Sun 06:11:47 AM 39.4833 -74.9833 11° North 281 323 8,500 -1,000 Descending Philadelphia TRACON
Sun 06:12:41 AM 39.5500 -74.9667 11° North 278 320 7,400 -1,043 Descending Philadelphia TRACON
Sun 06:14:05 AM 39.6500 -74.9333 14° North 273 314 6,100 -650 Descending Philadelphia TRACON
Sun 06:14:41 AM 39.7000 -74.9167 14° North 241 277 6,100  Level Philadelphia TRACON
Sun 06:15:47 AM 39.7667 -74.9000 11° North 226 260 6,100  Level Philadelphia TRACON
Sun 06:16:53 AM 39.8333 -74.8833 11° North 234 269 6,100 -381 Level Philadelphia TRACON
Sun 06:17:53 AM 39.8833 -74.8833 360° North 187 215 5,300 -476 Descending Philadelphia TRACON
Sun 06:18:59 AM 39.9333 -74.9000 346° North 182 209 5,100 -571 Descending Philadelphia TRACON
Sun 06:19:59 AM 39.9333 -74.9667 270° West 182 209 4,100 -1,000 Descending Philadelphia TRACON
Sun 06:20:59 AM 39.9167 -75.0333 252° West 183 211 3,100 -939 Descending Philadelphia TRACON
Sun 06:21:54 AM 39.9000 -75.0833 247° West 176 203 2,300 -942 Descending Philadelphia TRACON
Sun 06:23:00 AM 39.8833 -75.1500 252° West 170 196 1,200 -800 Descending Philadelphia TRACON
Sun 06:23:54 AM 39.8833 -75.1833 270° West 127 146 700 -556 Descending Philadelphia TRACON

Login

Don't have an account? Register now (free) for customized features, flight alerts, and more!